Time;durP1;ratioP1;P1;durP2;ratioP2;P2;SDS_P1;SDS_P2;PMS_P1;PMS_P2;Temp;Humidity;BMP_temperature;BMP_pressure;BME280_temperature;BME280_humidity;BME280_pressure;Samples;Min_cycle;Max_cycle;Signal;HPM_P1;HPM_P2
2022/11/16 00:01:04;;;;;;;7.45;3.05;;;;;;;;;;4881653;29;20041;-61
2022/11/16 00:03:31;;;;;;;4.40;2.83;;;;;;;;;;4881286;29;20044;-61
2022/11/16 00:05:58;;;;;;;3.65;2.70;;;;;;;;;;4881324;29;20108;-61
2022/11/16 00:08:24;;;;;;;3.50;2.72;;;;;;;;;;4880982;29;20052;-61
2022/11/16 00:10:51;;;;;;;5.18;4.25;;;;;;;;;;4881635;29;20052;-60
2022/11/16 00:13:18;;;;;;;4.10;2.90;;;;;;;;;;4881359;29;20049;-60
2022/11/16 00:15:52;;;;;;;3.25;2.70;;;;;;;;;;4881399;29;20467;-60
2022/11/16 00:18:19;;;;;;;2.60;2.05;;;;;;;;;;4880876;29;20045;-60
2022/11/16 00:20:45;;;;;;;4.88;2.70;;;;;;;;;;4881520;29;20045;-60
2022/11/16 00:23:12;;;;;;;2.85;2.20;;;;;;;;;;4882235;29;20037;-60
2022/11/16 00:25:38;;;;;;;3.58;2.85;;;;;;;;;;4881787;29;20110;-61
2022/11/16 00:28:05;;;;;;;3.05;2.60;;;;;;;;;;4880485;29;20085;-61
2022/11/16 00:30:31;;;;;;;3.30;2.50;;;;;;;;;;4880918;29;20406;-61
2022/11/16 00:33:01;;;;;;;4.03;2.40;;;;;;;;;;4880940;29;20051;-61
2022/11/16 00:35:27;;;;;;;2.33;2.13;;;;;;;;;;4880699;29;20466;-61
2022/11/16 00:37:54;;;;;;;3.10;2.50;;;;;;;;;;4880373;29;20053;-61
2022/11/16 00:40:20;;;;;;;4.50;2.55;;;;;;;;;;4881035;29;20053;-61
2022/11/16 00:42:47;;;;;;;2.33;1.85;;;;;;;;;;4880803;29;20038;-61
2022/11/16 00:45:14;;;;;;;2.95;1.92;;;;;;;;;;4880827;29;20059;-60
2022/11/16 00:47:40;;;;;;;2.10;1.90;;;;;;;;;;4880319;29;20482;-61
2022/11/16 00:50:07;;;;;;;3.28;2.38;;;;;;;;;;4895104;29;20048;-61
2022/11/16 00:52:33;;;;;;;3.63;2.13;;;;;;;;;;4894859;29;20627;-61
2022/11/16 00:55:01;;;;;;;3.05;2.22;;;;;;;;;;4879151;29;20045;-61
2022/11/16 00:57:27;;;;;;;1.90;1.70;;;;;;;;;;4878709;29;20049;-61
2022/11/16 00:59:54;;;;;;;3.10;1.77;;;;;;;;;;4894901;29;20072;-61
2022/11/16 01:02:21;;;;;;;2.55;1.90;;;;;;;;;;4894809;29;20093;-61
2022/11/16 01:04:48;;;;;;;2.13;1.92;;;;;;;;;;4878997;29;20060;-61
2022/11/16 01:07:14;;;;;;;4.88;2.10;;;;;;;;;;4894240;29;20052;-61
2022/11/16 01:09:40;;;;;;;1.77;1.38;;;;;;;;;;4879718;29;20045;-61
2022/11/16 01:12:08;;;;;;;2.92;1.70;;;;;;;;;;4894626;29;20049;-61
2022/11/16 01:14:36;;;;;;;2.42;2.00;;;;;;;;;;4878782;29;20049;-60
2022/11/16 01:17:04;;;;;;;2.85;1.63;;;;;;;;;;4878998;29;20089;-61
2022/11/16 01:19:30;;;;;;;1.98;1.48;;;;;;;;;;4878308;29;20506;-61
2022/11/16 01:21:57;;;;;;;1.98;1.60;;;;;;;;;;4878529;29;20053;-60
2022/11/16 01:24:24;;;;;;;1.88;1.48;;;;;;;;;;4878723;29;20057;-61
2022/11/16 01:26:51;;;;;;;3.50;2.03;;;;;;;;;;4880058;29;20521;-61
2022/11/16 01:29:17;;;;;;;2.22;1.70;;;;;;;;;;4879348;29;20502;-61
2022/11/16 01:31:50;;;;;;;2.25;2.05;;;;;;;;;;4894605;29;20057;-61
2022/11/16 01:34:17;;;;;;;1.67;1.55;;;;;;;;;;4879890;29;20055;-61
2022/11/16 01:36:43;;;;;;;1.50;1.40;;;;;;;;;;4878781;29;20052;-61
2022/11/16 01:39:11;;;;;;;1.45;1.30;;;;;;;;;;4893962;29;20395;-61
2022/11/16 01:41:44;;;;;;;4.00;1.90;;;;;;;;;;4878481;29;20148;-61
2022/11/16 01:44:13;;;;;;;3.13;2.05;;;;;;;;;;4879958;29;20503;-61
2022/11/16 01:46:51;;;;;;;3.20;2.10;;;;;;;;;;4878163;29;20071;-61
2022/11/16 01:49:20;;;;;;;4.15;2.50;;;;;;;;;;4878030;29;20045;-61
2022/11/16 01:51:54;;;;;;;3.88;1.60;;;;;;;;;;4893926;29;20064;-61
2022/11/16 01:54:21;;;;;;;4.03;1.48;;;;;;;;;;4893156;29;20110;-61
2022/11/16 01:57:00;;;;;;;1.70;1.40;;;;;;;;;;4893884;29;20049;-61
2022/11/16 01:59:35;;;;;;;2.63;1.75;;;;;;;;;;4893003;29;20071;-61
2022/11/16 02:02:02;;;;;;;2.00;1.60;;;;;;;;;;4879632;29;20071;-61
2022/11/16 02:04:30;;;;;;;1.95;1.60;;;;;;;;;;4878183;29;20052;-61
2022/11/16 02:07:04;;;;;;;1.75;1.65;;;;;;;;;;4893852;29;20458;-61
2022/11/16 02:09:56;;;;;;;1.83;1.63;;;;;;;;;;4877541;29;20049;-61
2022/11/16 02:12:33;;;;;;;3.90;2.45;;;;;;;;;;4893986;29;20502;-61
2022/11/16 02:15:19;;;;;;;2.85;2.50;;;;;;;;;;4878300;29;20049;-61
2022/11/16 02:17:58;;;;;;;4.65;2.92;;;;;;;;;;4877984;29;20053;-61
2022/11/16 02:20:25;;;;;;;2.85;2.40;;;;;;;;;;4893775;29;20045;-61
2022/11/16 02:23:11;;;;;;;5.57;2.95;;;;;;;;;;4878080;29;20127;-61
2022/11/16 02:25:49;;;;;;;3.78;2.80;;;;;;;;;;4878347;29;20053;-60
2022/11/16 02:28:42;;;;;;;5.22;2.65;;;;;;;;;;4878625;29;20051;-61
2022/11/16 02:31:12;;;;;;;3.45;2.63;;;;;;;;;;4864283;29;20053;-61
2022/11/16 02:33:40;;;;;;;3.22;2.80;;;;;;;;;;4893483;29;20072;-61
2022/11/16 02:36:09;;;;;;;6.63;4.07;;;;;;;;;;4877670;29;20049;-61
2022/11/16 02:38:38;;;;;;;4.30;3.78;;;;;;;;;;4878235;29;20056;-60
2022/11/16 02:41:07;;;;;;;3.50;2.70;;;;;;;;;;4878088;29;20059;-61
2022/11/16 02:43:37;;;;;;;4.32;3.85;;;;;;;;;;4893088;29;20052;-61
2022/11/16 02:46:07;;;;;;;7.93;6.68;;;;;;;;;;4877565;29;20048;-61
2022/11/16 02:48:35;;;;;;;10.38;8.80;;;;;;;;;;4892418;29;20495;-61
2022/11/16 02:51:05;;;;;;;8.45;7.65;;;;;;;;;;4877621;29;20049;-61
2022/11/16 02:53:35;;;;;;;5.80;4.50;;;;;;;;;;4892816;29;20041;-61
2022/11/16 02:56:02;;;;;;;5.47;4.60;;;;;;;;;;4877350;29;20049;-61
2022/11/16 02:58:28;;;;;;;3.25;2.90;;;;;;;;;;4878131;29;20049;-61
2022/11/16 03:01:04;;;;;;;4.80;2.95;;;;;;;;;;4893193;29;20049;-61
2022/11/16 03:03:42;;;;;;;7.80;4.70;;;;;;;;;;4878622;29;20493;-61
2022/11/16 03:06:12;;;;;;;7.50;4.43;;;;;;;;;;4879920;29;20075;-61
2022/11/16 03:08:49;;;;;;;4.88;4.00;;;;;;;;;;4896002;29;20049;-61
2022/11/16 03:14:06;;;;;;;8.85;4.03;;;;;;;;;;4896561;29;20045;-61
2022/11/16 03:16:33;;;;;;;3.95;2.97;;;;;;;;;;4881912;29;20128;-61
2022/11/16 03:19:01;;;;;;;5.32;3.65;;;;;;;;;;4895900;29;20037;-61
2022/11/16 03:21:31;;;;;;;6.65;2.65;;;;;;;;;;4880882;29;20044;-61
2022/11/16 03:24:00;;;;;;;3.95;3.28;;;;;;;;;;4880539;29;20041;-61
2022/11/16 03:26:30;;;;;;;5.63;4.50;;;;;;;;;;4881916;29;20049;-61
2022/11/16 03:29:00;;;;;;;9.32;6.72;;;;;;;;;;4895670;29;20568;-60
2022/11/16 03:31:33;;;;;;;10.82;8.48;;;;;;;;;;4896334;29;20132;-61
2022/11/16 03:34:03;;;;;;;7.45;5.78;;;;;;;;;;4881858;29;20499;-61
2022/11/16 03:36:35;;;;;;;2.13;1.92;;;;;;;;;;4880932;29;20414;-61
2022/11/16 03:39:07;;;;;;;1.80;1.70;;;;;;;;;;4881527;29;20328;-61
2022/11/16 03:41:35;;;;;;;2.97;2.50;;;;;;;;;;4896608;29;20090;-61
2022/11/16 03:44:03;;;;;;;2.17;1.50;;;;;;;;;;4880896;29;20490;-61
2022/11/16 03:46:30;;;;;;;1.50;1.40;;;;;;;;;;4880683;29;20403;-60
2022/11/16 03:48:58;;;;;;;3.72;1.65;;;;;;;;;;4879928;29;20053;-61
2022/11/16 03:51:28;;;;;;;1.30;1.20;;;;;;;;;;4880817;29;20499;-61
2022/11/16 03:53:55;;;;;;;3.10;1.45;;;;;;;;;;4896181;29;20049;-61
2022/11/16 03:56:22;;;;;;;3.63;1.75;;;;;;;;;;4895954;29;20082;-61
2022/11/16 03:58:48;;;;;;;2.97;1.45;;;;;;;;;;4879628;29;20048;-61
2022/11/16 04:01:16;;;;;;;1.30;1.20;;;;;;;;;;4880277;29;20056;-61
2022/11/16 04:03:44;;;;;;;0.90;0.90;;;;;;;;;;4880200;29;20040;-61
2022/11/16 04:25:39;;;;;;;1.00;0.90;;;;;;;;;;4895215;29;20064;-60
2022/11/16 04:28:13;;;;;;;1.50;1.40;;;;;;;;;;4880721;29;20076;-61
2022/11/16 04:39:33;;;;;;;1.35;0.90;;;;;;;;;;4894365;29;20135;-61
2022/11/16 04:42:16;;;;;;;0.82;0.77;;;;;;;;;;4894084;29;20059;-60
2022/11/16 04:47:36;;;;;;;1.08;0.77;;;;;;;;;;4893897;29;20053;-60
2022/11/16 04:50:03;;;;;;;2.15;0.95;;;;;;;;;;4880189;29;20036;-60
2022/11/16 04:52:30;;;;;;;1.17;1.00;;;;;;;;;;4878929;29;20095;-60
2022/11/16 04:54:57;;;;;;;1.20;0.90;;;;;;;;;;4878776;29;20045;-60
2022/11/16 04:57:24;;;;;;;1.08;0.82;;;;;;;;;;4893764;29;20045;-60
2022/11/16 04:59:50;;;;;;;0.90;0.88;;;;;;;;;;4878761;29;20049;-59
2022/11/16 05:02:18;;;;;;;2.28;1.10;;;;;;;;;;5325202;23;20531;-66
2022/11/16 05:04:51;;;;;;;2.70;1.00;;;;;;;;;;4935467;29;20412;-65
2022/11/16 05:07:19;;;;;;;2.80;1.30;;;;;;;;;;4934591;29;20056;-64
2022/11/16 05:09:46;;;;;;;2.78;1.20;;;;;;;;;;4951064;29;20569;-66
2022/11/16 05:12:18;;;;;;;1.83;1.08;;;;;;;;;;4927700;29;20070;-66
2022/11/16 05:14:47;;;;;;;1.83;1.15;;;;;;;;;;4916681;29;20096;-66
2022/11/16 05:17:15;;;;;;;6.25;1.50;;;;;;;;;;4931450;29;20044;-65
2022/11/16 05:22:31;;;;;;;2.65;1.40;;;;;;;;;;4917402;29;20040;-65
2022/11/16 05:25:00;;;;;;;2.92;1.63;;;;;;;;;;4915968;29;20584;-65
2022/11/16 05:27:27;;;;;;;3.33;1.70;;;;;;;;;;4915442;29;20091;-65
2022/11/16 05:29:54;;;;;;;3.20;1.55;;;;;;;;;;4915942;29;20505;-65
2022/11/16 05:32:23;;;;;;;3.33;1.50;;;;;;;;;;4931781;29;20080;-65
2022/11/16 05:34:51;;;;;;;2.67;1.48;;;;;;;;;;4931569;29;20106;-65
2022/11/16 05:37:19;;;;;;;2.22;1.70;;;;;;;;;;4930990;29;20071;-65
2022/11/16 05:39:46;;;;;;;3.88;1.67;;;;;;;;;;4917148;29;20036;-66
2022/11/16 05:42:13;;;;;;;3.60;1.80;;;;;;;;;;4931194;29;20072;-65
2022/11/16 05:44:40;;;;;;;3.03;1.60;;;;;;;;;;4900353;29;20479;-65
2022/11/16 05:47:08;;;;;;;3.38;1.73;;;;;;;;;;4915640;29;20054;-65
2022/11/16 05:49:34;;;;;;;2.35;1.50;;;;;;;;;;4916609;29;20036;-66
2022/11/16 05:52:02;;;;;;;4.55;1.83;;;;;;;;;;4915543;29;20044;-65
2022/11/16 05:54:30;;;;;;;6.10;1.75;;;;;;;;;;4930984;29;20420;-64
2022/11/16 05:56:56;;;;;;;3.83;1.58;;;;;;;;;;4931351;29;20052;-64
2022/11/16 05:59:23;;;;;;;2.95;1.67;;;;;;;;;;4930978;29;20568;-65
2022/11/16 06:01:53;;;;;;;3.25;2.08;;;;;;;;;;4931401;29;20104;-64
2022/11/16 06:04:20;;;;;;;3.67;1.80;;;;;;;;;;4915685;29;20079;-65
2022/11/16 06:06:52;;;;;;;4.15;2.10;;;;;;;;;;4916213;29;20067;-65
2022/11/16 06:09:19;;;;;;;6.60;2.20;;;;;;;;;;4931048;29;20138;-64
2022/11/16 06:11:47;;;;;;;2.67;1.50;;;;;;;;;;4915518;29;20141;-64
2022/11/16 06:14:14;;;;;;;2.40;1.98;;;;;;;;;;4931493;29;20458;-64
2022/11/16 06:16:42;;;;;;;4.72;2.10;;;;;;;;;;4915535;29;20040;-64
2022/11/16 06:19:09;;;;;;;3.67;2.05;;;;;;;;;;4930599;29;20052;-64
2022/11/16 06:21:36;;;;;;;4.03;2.00;;;;;;;;;;4930771;29;20075;-64
2022/11/16 06:24:08;;;;;;;3.90;2.10;;;;;;;;;;4930890;29;20076;-65
2022/11/16 06:26:35;;;;;;;3.75;1.80;;;;;;;;;;4915011;29;20482;-64
2022/11/16 06:29:02;;;;;;;3.13;1.83;;;;;;;;;;4929895;29;20135;-64
2022/11/16 06:31:29;;;;;;;3.75;2.38;;;;;;;;;;4930516;29;20397;-64
2022/11/16 06:33:59;;;;;;;5.15;2.38;;;;;;;;;;4930578;29;20044;-64
2022/11/16 06:36:27;;;;;;;5.78;2.30;;;;;;;;;;4915362;29;20428;-65
2022/11/16 06:38:54;;;;;;;5.70;2.60;;;;;;;;;;4929652;29;20056;-65
2022/11/16 06:41:22;;;;;;;3.03;2.05;;;;;;;;;;4914150;29;20048;-65
2022/11/16 06:43:49;;;;;;;3.90;2.70;;;;;;;;;;4930477;29;20532;-65
2022/11/16 06:46:19;;;;;;;5.28;2.25;;;;;;;;;;4914616;29;20056;-66
2022/11/16 06:48:46;;;;;;;5.25;1.95;;;;;;;;;;4914096;29;20133;-65
2022/11/16 06:51:13;;;;;;;5.18;2.30;;;;;;;;;;4914548;29;20135;-65
2022/11/16 06:53:39;;;;;;;4.13;1.92;;;;;;;;;;4930322;29;20056;-65
2022/11/16 06:56:06;;;;;;;8.68;2.10;;;;;;;;;;4914706;29;20047;-67
2022/11/16 06:58:39;;;;;;;5.65;2.08;;;;;;;;;;4914319;29;20052;-65
2022/11/16 07:01:10;;;;;;;4.75;2.17;;;;;;;;;;4914470;29;20107;-64
2022/11/16 07:03:39;;;;;;;3.95;2.03;;;;;;;;;;4930405;29;20052;-64
2022/11/16 07:06:08;;;;;;;4.72;2.17;;;;;;;;;;4915000;29;20041;-64
2022/11/16 07:08:36;;;;;;;8.25;2.40;;;;;;;;;;4929603;29;20411;-64
2022/11/16 07:11:04;;;;;;;6.50;1.85;;;;;;;;;;4930235;29;20444;-64
2022/11/16 07:13:32;;;;;;;6.82;2.15;;;;;;;;;;4930229;29;20051;-64
2022/11/16 07:16:00;;;;;;;5.40;3.13;;;;;;;;;;4930438;29;20568;-64
2022/11/16 07:18:26;;;;;;;8.27;2.60;;;;;;;;;;4914144;29;20049;-65
2022/11/16 07:20:53;;;;;;;10.93;2.75;;;;;;;;;;4916118;29;20055;-65
2022/11/16 07:23:19;;;;;;;6.60;2.35;;;;;;;;;;4914348;29;20500;-65
2022/11/16 07:25:47;;;;;;;9.02;2.33;;;;;;;;;;4930495;29;20036;-65
2022/11/16 07:28:23;;;;;;;8.25;2.25;;;;;;;;;;4915442;29;20072;-65
2022/11/16 07:30:49;;;;;;;5.57;2.00;;;;;;;;;;4930084;29;20476;-64
2022/11/16 07:33:23;;;;;;;;;;;;;;;;;;4914568;29;20552;-65
2022/11/16 07:36:11;;;;;;;8.57;2.25;;;;;;;;;;4914524;29;20084;-65
2022/11/16 07:38:38;;;;;;;7.38;2.38;;;;;;;;;;4931025;29;20074;-65
2022/11/16 07:41:08;;;;;;;4.40;2.17;;;;;;;;;;4930915;29;20052;-65
2022/11/16 07:43:38;;;;;;;8.70;2.50;;;;;;;;;;4914346;29;20112;-65
2022/11/16 07:46:18;;;;;;;16.33;2.70;;;;;;;;;;4930231;29;20067;-65
2022/11/16 07:49:07;;;;;;;5.00;2.10;;;;;;;;;;4913753;29;20052;-65
2022/11/16 07:51:52;;;;;;;9.60;3.13;;;;;;;;;;4914278;29;20058;-65
2022/11/16 07:54:45;;;;;;;7.35;2.40;;;;;;;;;;4927752;29;20099;-65
2022/11/16 07:57:13;;;;;;;7.55;2.00;;;;;;;;;;4917596;29;20568;-65
2022/11/16 07:59:41;;;;;;;8.43;2.15;;;;;;;;;;4932980;29;20469;-65
2022/11/16 08:02:08;;;;;;;5.30;2.63;;;;;;;;;;4933080;29;20052;-65
2022/11/16 08:04:37;;;;;;;8.98;2.60;;;;;;;;;;4932711;29;20052;-65
2022/11/16 08:07:04;;;;;;;8.20;2.17;;;;;;;;;;4917348;29;20052;-65
2022/11/16 08:09:38;;;;;;;8.02;2.35;;;;;;;;;;4932647;29;20048;-65
2022/11/16 08:12:06;;;;;;;11.25;3.00;;;;;;;;;;4917217;29;20592;-66
2022/11/16 08:14:33;;;;;;;8.02;2.72;;;;;;;;;;4918529;29;20044;-65
2022/11/16 08:17:02;;;;;;;4.45;2.28;;;;;;;;;;4917310;29;20073;-65
2022/11/16 08:19:29;;;;;;;7.90;1.80;;;;;;;;;;4916833;29;20052;-65
2022/11/16 08:21:56;;;;;;;8.10;2.10;;;;;;;;;;4917323;29;20071;-65
2022/11/16 08:24:26;;;;;;;6.22;2.28;;;;;;;;;;4933277;29;20078;-67
2022/11/16 08:26:53;;;;;;;16.27;2.30;;;;;;;;;;4917350;29;20048;-65
2022/11/16 08:29:19;;;;;;;7.03;2.60;;;;;;;;;;4932389;29;20067;-65
2022/11/16 08:31:49;;;;;;;6.53;2.72;;;;;;;;;;4933064;29;20680;-65
2022/11/16 08:34:18;;;;;;;7.00;2.17;;;;;;;;;;4917207;29;20560;-66
2022/11/16 08:36:48;;;;;;;5.47;2.28;;;;;;;;;;4932598;29;20533;-66
2022/11/16 08:39:17;;;;;;;8.55;2.72;;;;;;;;;;4916900;29;20062;-66
2022/11/16 08:41:44;;;;;;;9.85;2.47;;;;;;;;;;4917108;29;20048;-66
2022/11/16 08:44:11;;;;;;;10.38;2.35;;;;;;;;;;4932920;29;20055;-65
2022/11/16 08:46:41;;;;;;;6.20;2.33;;;;;;;;;;4917386;29;20139;-65
2022/11/16 08:49:20;;;;;;;7.78;2.50;;;;;;;;;;4917523;29;20135;-66
2022/11/16 08:51:47;;;;;;;9.23;2.63;;;;;;;;;;4933313;29;20044;-66
2022/11/16 08:54:13;;;;;;;7.47;2.88;;;;;;;;;;4917698;29;20556;-66
2022/11/16 08:56:41;;;;;;;7.30;2.38;;;;;;;;;;4918516;29;20461;-66
2022/11/16 08:59:09;;;;;;;8.02;2.40;;;;;;;;;;4917860;29;20546;-66
2022/11/16 09:01:43;;;;;;;;;;;;;;;;;;4933591;29;20125;-67
2022/11/16 09:04:09;;;;;;;6.57;2.30;;;;;;;;;;4918915;29;20018;-66
2022/11/16 09:06:36;;;;;;;9.75;3.03;;;;;;;;;;4917789;29;20059;-67
2022/11/16 09:09:02;;;;;;;6.25;2.30;;;;;;;;;;4918307;29;20052;-66
2022/11/16 09:11:29;;;;;;;7.43;2.80;;;;;;;;;;4918456;29;20051;-66
2022/11/16 09:13:56;;;;;;;5.38;2.30;;;;;;;;;;4917158;29;20067;-67
2022/11/16 09:16:23;;;;;;;7.40;2.50;;;;;;;;;;4917024;29;20056;-66
2022/11/16 09:18:50;;;;;;;10.65;3.00;;;;;;;;;;4916797;29;20107;-66
2022/11/16 09:21:20;;;;;;;6.32;1.92;;;;;;;;;;4917507;29;20485;-66
2022/11/16 09:23:47;;;;;;;8.13;2.92;;;;;;;;;;4932897;29;20168;-66
2022/11/16 09:26:15;;;;;;;6.47;2.28;;;;;;;;;;4932654;29;20060;-66
2022/11/16 09:28:41;;;;;;;10.02;2.95;;;;;;;;;;4915913;29;20048;-66
2022/11/16 09:31:09;;;;;;;10.98;2.55;;;;;;;;;;4917878;29;20125;-66
2022/11/16 09:33:35;;;;;;;6.13;2.63;;;;;;;;;;4918123;29;20044;-67
2022/11/16 09:36:05;;;;;;;6.50;2.20;;;;;;;;;;4917670;29;20460;-67
2022/11/16 09:38:42;;;;;;;9.50;2.38;;;;;;;;;;4932178;29;20092;-66
2022/11/16 09:41:29;;;;;;;7.00;2.20;;;;;;;;;;4930447;29;20083;-66
2022/11/16 09:43:59;;;;;;;6.03;1.83;;;;;;;;;;4916860;29;20104;-67
2022/11/16 09:46:28;;;;;;;6.82;1.52;;;;;;;;;;4932492;29;20052;-67
2022/11/16 09:48:59;;;;;;;13.23;2.63;;;;;;;;;;4917908;29;20040;-66
2022/11/16 09:51:28;;;;;;;8.00;2.15;;;;;;;;;;4917648;29;20052;-66
2022/11/16 09:54:01;;;;;;;8.18;2.72;;;;;;;;;;4918069;29;20048;-66
2022/11/16 09:56:30;;;;;;;6.35;2.75;;;;;;;;;;4932200;29;20450;-66
2022/11/16 09:59:15;;;;;;;5.80;1.80;;;;;;;;;;4916072;29;20086;-67
2022/11/16 10:01:47;;;;;;;7.15;2.17;;;;;;;;;;4932292;29;20477;-66
2022/11/16 10:04:16;;;;;;;6.10;1.70;;;;;;;;;;4916326;29;20044;-67
2022/11/16 10:06:51;;;;;;;8.23;1.98;;;;;;;;;;4932522;29;20103;-66
2022/11/16 10:09:18;;;;;;;3.28;1.92;;;;;;;;;;4915923;29;20461;-66
2022/11/16 10:11:50;;;;;;;6.05;1.88;;;;;;;;;;4932021;29;20151;-66
2022/11/16 10:14:37;;;;;;;6.50;1.67;;;;;;;;;;4918011;29;20489;-67
2022/11/16 10:17:16;;;;;;;10.55;2.22;;;;;;;;;;4915603;29;20115;-66
2022/11/16 10:19:48;;;;;;;7.82;2.13;;;;;;;;;;4917134;29;20051;-67
2022/11/16 10:22:27;;;;;;;7.75;2.00;;;;;;;;;;4930883;29;20112;-66
2022/11/16 10:24:56;;;;;;;6.80;2.08;;;;;;;;;;4915351;29;20048;-66
2022/11/16 10:27:26;;;;;;;8.00;1.95;;;;;;;;;;4916365;29;20063;-66
2022/11/16 10:30:08;;;;;;;5.70;1.58;;;;;;;;;;4916419;29;20052;-66
2022/11/16 10:32:37;;;;;;;6.47;1.83;;;;;;;;;;4916464;29;20091;-66
2022/11/16 10:35:04;;;;;;;8.20;2.10;;;;;;;;;;4916317;29;20044;-67
2022/11/16 10:37:31;;;;;;;4.80;2.05;;;;;;;;;;4914813;29;20048;-66
2022/11/16 10:39:59;;;;;;;7.32;1.95;;;;;;;;;;4915032;29;20055;-66
2022/11/16 10:42:29;;;;;;;9.57;1.80;;;;;;;;;;4914922;29;20055;-66
2022/11/16 10:45:01;;;;;;;5.35;2.10;;;;;;;;;;4916166;29;20052;-66
2022/11/16 10:47:43;;;;;;;8.32;1.80;;;;;;;;;;4930347;29;20056;-66
2022/11/16 10:50:16;;;;;;;4.03;1.90;;;;;;;;;;4915005;29;20052;-66
2022/11/16 10:52:42;;;;;;;5.35;1.75;;;;;;;;;;4916249;29;20048;-66
2022/11/16 10:55:13;;;;;;;5.43;2.35;;;;;;;;;;4916191;29;20051;-66
2022/11/16 10:57:54;;;;;;;6.05;2.17;;;;;;;;;;4929955;29;20040;-64
2022/11/16 11:00:34;;;;;;;8.38;2.20;;;;;;;;;;4916033;29;20044;-66
2022/11/16 11:03:01;;;;;;;7.25;1.70;;;;;;;;;;4930391;29;20143;-64
2022/11/16 11:05:28;;;;;;;4.85;1.40;;;;;;;;;;4915883;29;20044;-65
2022/11/16 11:08:02;;;;;;;7.63;1.70;;;;;;;;;;4915706;29;20044;-65
2022/11/16 11:10:29;;;;;;;4.50;1.60;;;;;;;;;;4930641;29;20120;-65
2022/11/16 11:13:03;;;;;;;8.90;2.13;;;;;;;;;;4914670;29;20059;-65
2022/11/16 11:15:30;;;;;;;5.05;2.40;;;;;;;;;;4915999;29;20044;-65
2022/11/16 11:18:15;;;;;;;4.18;2.00;;;;;;;;;;4915571;29;20044;-65
2022/11/16 11:20:43;;;;;;;6.45;1.33;;;;;;;;;;4930337;29;20497;-65
2022/11/16 11:23:16;;;;;;;17.98;2.75;;;;;;;;;;4930588;29;20390;-66
2022/11/16 11:25:53;;;;;;;4.30;1.40;;;;;;;;;;4930351;29;20048;-66
2022/11/16 11:28:19;;;;;;;2.53;1.13;;;;;;;;;;4918114;29;20095;-65
2022/11/16 11:30:55;;;;;;;5.90;1.80;;;;;;;;;;4918232;29;20052;-65
2022/11/16 11:33:22;;;;;;;5.25;2.45;;;;;;;;;;4933836;29;20047;-66
2022/11/16 11:36:17;;;;;;;9.25;2.40;;;;;;;;;;4934059;29;20072;-65
2022/11/16 11:39:13;;;;;;;5.90;1.52;;;;;;;;;;4918124;29;20420;-65
2022/11/16 11:41:43;;;;;;;5.88;1.65;;;;;;;;;;4909656;29;20052;-65
2022/11/16 11:44:17;;;;;;;6.68;2.15;;;;;;;;;;4919383;29;20050;-65
2022/11/16 11:46:48;;;;;;;7.95;2.00;;;;;;;;;;4919350;29;20421;-65
2022/11/16 11:49:39;;;;;;;3.65;1.50;;;;;;;;;;4918686;29;20067;-65
2022/11/16 11:52:10;;;;;;;6.43;2.10;;;;;;;;;;4919005;29;20059;-65
2022/11/16 11:54:39;;;;;;;6.13;1.63;;;;;;;;;;4919030;29;20453;-65
2022/11/16 11:57:14;;;;;;;7.28;1.70;;;;;;;;;;4932902;29;20055;-65
2022/11/16 11:59:41;;;;;;;4.57;1.85;;;;;;;;;;4918650;29;20040;-65
2022/11/16 12:02:26;;;;;;;4.65;1.67;;;;;;;;;;4933137;29;20067;-65
2022/11/16 12:04:55;;;;;;;4.97;1.92;;;;;;;;;;4933482;29;20056;-65
2022/11/16 12:07:37;;;;;;;7.10;1.58;;;;;;;;;;4933087;29;20054;-65
2022/11/16 12:10:20;;;;;;;5.78;1.90;;;;;;;;;;4933288;29;20056;-66
2022/11/16 12:12:55;;;;;;;6.72;2.40;;;;;;;;;;4933353;29;20048;-67
2022/11/16 12:15:30;;;;;;;7.70;4.53;;;;;;;;;;4933831;29;20421;-65
2022/11/16 12:18:06;;;;;;;10.18;3.17;;;;;;;;;;4917769;29;20044;-65
2022/11/16 12:20:32;;;;;;;5.85;1.90;;;;;;;;;;4917528;29;20059;-65
2022/11/16 12:22:59;;;;;;;8.75;3.13;;;;;;;;;;4933026;29;20066;-64
2022/11/16 12:25:40;;;;;;;9.02;2.45;;;;;;;;;;4918784;29;20405;-65
2022/11/16 12:28:25;;;;;;;8.55;3.15;;;;;;;;;;4932665;29;20108;-65
2022/11/16 12:30:59;;;;;;;5.40;2.17;;;;;;;;;;4932951;29;20108;-65
2022/11/16 12:33:35;;;;;;;5.78;2.70;;;;;;;;;;4917825;29;20515;-66
2022/11/16 12:36:05;;;;;;;8.02;2.35;;;;;;;;;;4917598;29;20048;-66
2022/11/16 12:38:37;;;;;;;6.95;2.30;;;;;;;;;;4917693;29;20044;-66
2022/11/16 12:41:34;;;;;;;11.93;3.33;;;;;;;;;;4917121;29;20052;-66
2022/11/16 12:44:20;;;;;;;7.13;3.22;;;;;;;;;;4917979;29;20070;-64
2022/11/16 12:46:58;;;;;;;10.10;2.85;;;;;;;;;;4932621;29;20095;-64
2022/11/16 12:49:26;;;;;;;9.60;2.08;;;;;;;;;;4932301;29;20100;-64
2022/11/16 12:52:07;;;;;;;6.80;2.65;;;;;;;;;;4916597;29;20047;-65
2022/11/16 12:54:53;;;;;;;6.28;2.90;;;;;;;;;;4917925;29;20044;-65
2022/11/16 12:57:48;;;;;;;8.07;2.65;;;;;;;;;;4929720;29;20044;-65
2022/11/16 13:00:25;;;;;;;11.05;3.13;;;;;;;;;;4916847;29;20052;-65
2022/11/16 13:02:56;;;;;;;8.82;3.53;;;;;;;;;;4917143;29;20474;-66
2022/11/16 13:05:39;;;;;;;7.00;2.60;;;;;;;;;;4916400;29;20051;-66
2022/11/16 13:08:24;;;;;;;7.97;1.50;;;;;;;;;;4917294;29;20048;-67
2022/11/16 13:10:53;;;;;;;8.88;2.58;;;;;;;;;;4916027;29;20044;-66
2022/11/16 13:13:28;;;;;;;6.38;2.67;;;;;;;;;;4917429;29;20112;-66
2022/11/16 13:16:03;;;;;;;9.63;2.20;;;;;;;;;;4931899;29;20048;-66
2022/11/16 13:18:31;;;;;;;8.88;2.05;;;;;;;;;;4916883;29;20052;-66
2022/11/16 13:21:15;;;;;;;6.13;1.58;;;;;;;;;;4917219;29;20100;-66
2022/11/16 13:23:42;;;;;;;;;;;;;;;;;;4917661;29;20205;-66
2022/11/16 13:26:30;;;;;;;7.50;1.90;;;;;;;;;;4931820;29;19994;-66
2022/11/16 13:29:03;;;;;;;6.72;2.30;;;;;;;;;;4916907;29;20052;-64
2022/11/16 13:31:52;;;;;;;7.13;1.70;;;;;;;;;;4931494;29;20052;-64
2022/11/16 13:34:30;;;;;;;9.00;2.28;;;;;;;;;;4917037;29;20052;-64
2022/11/16 13:36:57;;;;;;;6.72;1.83;;;;;;;;;;4917051;29;20044;-64
2022/11/16 13:39:46;;;;;;;6.90;1.80;;;;;;;;;;4916542;29;20048;-65
2022/11/16 13:42:13;;;;;;;4.38;1.80;;;;;;;;;;4907029;29;20070;-65
2022/11/16 13:44:39;;;;;;;6.47;1.80;;;;;;;;;;4916804;29;20453;-65
2022/11/16 13:47:16;;;;;;;8.90;2.10;;;;;;;;;;4916825;29;20498;-65
2022/11/16 13:49:49;;;;;;;8.65;2.55;;;;;;;;;;4931560;29;20063;-66
2022/11/16 13:52:16;;;;;;;5.97;2.05;;;;;;;;;;4916165;29;20048;-66
2022/11/16 13:54:53;;;;;;;6.03;1.75;;;;;;;;;;4930353;29;20048;-66
2022/11/16 13:57:31;;;;;;;8.43;2.58;;;;;;;;;;4915281;29;20076;-66
2022/11/16 14:00:00;;;;;;;5.57;2.17;;;;;;;;;;4916786;29;20051;-66
2022/11/16 14:02:37;;;;;;;6.93;1.80;;;;;;;;;;4916508;29;20111;-66
2022/11/16 14:05:13;;;;;;;8.88;2.50;;;;;;;;;;4915653;29;20458;-66
2022/11/16 14:07:45;;;;;;;8.73;2.40;;;;;;;;;;4916334;29;20520;-66
2022/11/16 14:10:32;;;;;;;2.92;1.50;;;;;;;;;;4916532;29;20088;-66
2022/11/16 14:12:59;;;;;;;8.77;2.13;;;;;;;;;;4916454;29;20043;-66
2022/11/16 14:15:27;;;;;;;4.25;1.60;;;;;;;;;;4916467;29;20096;-66
2022/11/16 14:17:56;;;;;;;3.53;1.50;;;;;;;;;;4916006;29;20040;-66
2022/11/16 14:20:33;;;;;;;7.75;2.17;;;;;;;;;;4916393;29;20051;-66
2022/11/16 14:23:10;;;;;;;7.22;2.63;;;;;;;;;;4916343;29;20453;-66
2022/11/16 14:25:47;;;;;;;6.35;1.75;;;;;;;;;;4916303;29;20044;-66
2022/11/16 14:28:21;;;;;;;5.95;1.73;;;;;;;;;;4930715;29;20043;-67
2022/11/16 14:30:59;;;;;;;8.25;2.17;;;;;;;;;;4915963;29;20054;-66
2022/11/16 14:33:32;;;;;;;9.70;2.50;;;;;;;;;;4916092;29;20044;-67
2022/11/16 14:36:00;;;;;;;6.80;2.20;;;;;;;;;;4915975;29;20044;-66
2022/11/16 14:38:32;;;;;;;6.35;2.67;;;;;;;;;;4915397;29;20041;-66
2022/11/16 14:40:59;;;;;;;9.45;2.17;;;;;;;;;;4916122;29;20103;-66
2022/11/16 14:43:32;;;;;;;9.07;2.47;;;;;;;;;;4914841;29;20099;-67
2022/11/16 14:46:04;;;;;;;9.00;3.03;;;;;;;;;;4930644;29;20079;-66
2022/11/16 14:48:31;;;;;;;9.52;3.20;;;;;;;;;;4930049;29;20536;-66
2022/11/16 14:51:10;;;;;;;12.50;4.20;;;;;;;;;;4915643;29;20536;-66
2022/11/16 14:53:38;;;;;;;6.18;3.00;;;;;;;;;;4915744;29;20048;-67
2022/11/16 14:56:10;;;;;;;5.35;2.40;;;;;;;;;;4930286;29;20402;-66
2022/11/16 14:58:36;;;;;;;7.47;2.45;;;;;;;;;;4929593;29;20041;-66
2022/11/16 15:01:11;;;;;;;4.53;1.83;;;;;;;;;;4915835;29;20489;-66
2022/11/16 15:03:41;;;;;;;9.00;4.57;;;;;;;;;;4918121;29;20044;-66
2022/11/16 15:06:07;;;;;;;9.30;4.25;;;;;;;;;;4919399;29;20048;-66
2022/11/16 15:08:37;;;;;;;9.80;2.40;;;;;;;;;;4917599;29;20709;-66
2022/11/16 15:11:06;;;;;;;7.28;2.67;;;;;;;;;;4918293;29;20059;-66
2022/11/16 15:13:34;;;;;;;6.65;2.08;;;;;;;;;;4919532;29;20095;-66
2022/11/16 15:16:14;;;;;;;5.85;2.05;;;;;;;;;;4919674;29;20040;-67
2022/11/16 15:18:54;;;;;;;5.93;2.00;;;;;;;;;;4918799;29;20047;-66
2022/11/16 15:21:21;;;;;;;5.28;1.65;;;;;;;;;;4919190;29;20509;-66
2022/11/16 15:23:48;;;;;;;5.65;2.35;;;;;;;;;;4918315;29;20062;-66
2022/11/16 15:26:36;;;;;;;5.95;1.88;;;;;;;;;;4919235;29;20078;-66
2022/11/16 15:29:03;;;;;;;4.40;1.77;;;;;;;;;;4918591;29;20083;-67
2022/11/16 15:31:29;;;;;;;8.98;4.47;;;;;;;;;;4919083;29;20040;-66
2022/11/16 15:33:56;;;;;;;20.33;9.50;;;;;;;;;;4917852;29;20107;-66
2022/11/16 15:36:22;;;;;;;12.15;5.75;;;;;;;;;;4919056;29;20450;-67
2022/11/16 15:38:50;;;;;;;13.27;5.18;;;;;;;;;;4918471;29;20048;-65
2022/11/16 15:41:16;;;;;;;7.43;2.67;;;;;;;;;;4918839;29;20103;-66
2022/11/16 15:43:45;;;;;;;4.93;2.17;;;;;;;;;;4919162;29;20430;-66